Alinda, Pennsylvania
Current Conditions -  °F | °C
As of 10:56 AM on Friday 19 Dec 2014 (Local Time) from KCXY Reporting Station
Overcast Overcast  
Wind Chill: 30°   Ceiling: 3700
Heat Index: 38°   Visibility: 10mi
Dew Point: 22°   Wind: 14mph
Humidity: 53%   Direction: 330°NNW
Pressure: 30.12"   Gusts: 22mph
Location:  40.3086°N, 77.3363°W
Report Text: KCXY 191556Z 33012G19KT 10SM OVC037 03/M06 A3012 RMK AO2 SLP204 T00331056
Loading
Personal Weather Stations






























Interactive Weather Map New forecast layout! Learn more

10-Day Weather Forecast

Advertisements
Track Severe Weather on mobile